Fairview, Oklahoma
Current Conditions -  °F | °C
As of 2:35 AM on Saturday 29 Nov 2014 (Local Time) from KJWG Reporting Station
Clear Clear  
Wind Chill: 53°   Ceiling: Unl
Heat Index: 53°   Visibility: 10mi
Dew Point: 40°   Wind: 13mph
Humidity: 61%   Direction: 190°S
Pressure: 29.74"   Gusts: 17mph
Location:  36.27°N, 98.48°W
Report Text: KJWG 290835Z AUTO 19011G15KT 10SM CLR 12/04 A2974 RMK AO2 T01160042
Loading
Personal Weather Stations






























Interactive Weather Map New forecast layout! Learn more

10-Day Weather Forecast

Advertisements
Track Severe Weather on mobile